默认 日期 大小 文件数 浏览量 最新下载 xml
kent 24磁力链接相关资源由用户搜索指令自动获取,结果来源于网络,本站不存储任何资料,亦不承担任何责任,请于24小时内删除,搜索到263个磁力,用时8ms。
    ... .com.txt": 34, "model-bio_Lucy-Kent.txt": 298, "RARBG.COM_XXX_BANNER.jpg ...
创建时间: 2019-01-15 06:33:14 大小:220.78 MB 文件数量:122 热度:9 最近下载:2025-08-03 19:07:12
    ... . Tod und Verklärung, op. 24 - Largo.flac": 79097852, "15. Tod ... und Verklärung, op. 24 - Moderato.flac": 136740183, "04. Ein ... Tod und Verklärung, op. 24 - A tempo primo.flac": 66240811 ... . Tod und Verklärung, op. 24 - Allegro, molto agitato.flac": 73092118 ...
创建时间: 2019-01-15 15:55:35 大小:1.15 GB 文件数量:19 热度:10 最近下载:2025-08-01 03:37:06
    {"Back.jpg": 422996, "Cover.jpg": 228559, "foo_dr.txt": 3399, "booklet.pdf": 6756856, "14. Eine Alpensinfonie, Op. 64, TrV 233 Vision.flac": 63533171, "17. Eine Alpensinfonie, Op. 64, TrV 233 Elegie.flac": 33013625, "01. Eine Alpensinfonie, Op. 64, TrV 233 ...
创建时间: 2019-01-15 20:15:41 大小:787 MB 文件数量:26 热度:10 最近下载:2025-07-20 11:13:02
    ... , "31 - I. Ouverture.flac": 87849983, "24 - II. Larghetto.flac": 209833055, "20 ...
创建时间: 2019-01-16 08:34:03 大小:5.54 GB 文件数量:49 热度:13 最近下载:2025-01-29 18:44:02
    ... Kinetic Ritual.flac": 92515672, "Klark Kent - 1980 EP + singles.m3u": 296 ... Demonoid.me.txt": 46, "Klark Kent (Stewart Copeland) 1980 EP + singles ...
创建时间: 2019-01-17 23:50:06 大小:838.94 MB 文件数量:36 热度:8 最近下载:2025-01-07 02:49:03
    {"RARBG.txt": 30, "VivThomas.18.01.24.Alyssia.Kent.And.Aruna.Aghora.Flirtatious.XXX.SD.MP4-KLEENEX.mp4": 187274382}
创建时间: 2019-01-19 21:49:08 大小:178.6 MB 文件数量:2 热度:9 最近下载:2025-03-13 23:47:03
    {"Torrent Downloaded From ProstyleX.com.nfo": 38, "RKPrime - Alyssia Kent - Wet Marks The Spot.mp4": 319842299}
创建时间: 2019-01-24 18:15:29 大小:305.03 MB 文件数量:2 热度:12 最近下载:2025-10-13 21:11:03
    {"rkprime.19.01.24.alyssia.kent.wet.marks.the.spot.mp4": 295931994}
创建时间: 2019-01-27 12:43:17 大小:282.22 MB 文件数量:1 热度:17 最近下载:2025-10-10 13:48:03
    {"RARBG.txt": 30, "RARBG_DO_NOT_MIRROR.exe": 99, "rkprime.19.01.24.alyssia.kent.wet.marks.the.spot.mp4": 2589997436, "rkprime.19.01.24.alyssia.kent.wet.marks.the.spot.nfo": 5195}
创建时间: 2019-01-27 23:26:10 大小:2.41 GB 文件数量:4 热度:55 最近下载:2025-05-04 10:09:02
    {"RARBG.txt": 30, "RARBG_DO_NOT_MIRROR.exe": 99, "RKPrime.19.01.24.Alyssia.Kent.Wet.Marks.The.Spot.XXX.SD.MP4-KLEENEX.mp4": 290021740}
创建时间: 2019-01-28 05:12:36 大小:276.59 MB 文件数量:3 热度:12 最近下载:2025-03-13 23:59:06
    {"cover.jpg": 102136, "05. Sheared.flac": 72359253, "02. Imbalance.flac": 91406121, "07. Crepuscolo.flac": 88413004, "04. Floating City.flac": 75665821, "01. Last Hour Story.flac": 252395412, "06. Through the Window.flac": 120902279, "03. Conditional ...
创建时间: 2019-01-28 18:29:04 大小:747.21 MB 文件数量:9 热度:6 最近下载:2022-11-12 12:46:37
    {"cover.jpg": 102136, "05. Sheared.flac": 72359253, "02. Imbalance.flac": 91406121, "07. Crepuscolo.flac": 88413004, "04. Floating City.flac": 75665821, "01. Last Hour Story.flac": 252395412, "06. Through the Window.flac": 120902279, "03. Conditional ...
创建时间: 2019-01-28 20:32:54 大小:747.21 MB 文件数量:8 热度:7 最近下载:2025-10-13 06:54:01
    {"rkprime.19.01.24.alyssia.kent.wet.marks.the.spot[N1C].mp4": 2589641497}
创建时间: 2019-01-31 03:21:50 大小:2.41 GB 文件数量:1 热度:18 最近下载:2025-03-14 00:17:02
    {"00_18_08.jpg": 175777, "nathtashaclarke_850.f4v": 759393514, "nathtashaclarke_850.f4v.jpg": 788660}
创建时间: 2019-02-08 03:32:12 大小:725.13 MB 文件数量:3 热度:13 最近下载:2025-08-07 05:20:03
    {"RARBG.txt": 30, "fugli.nfo": 12193, "file_id.diz": 698, "RARBG.COM_XXX_BANNER.jpg": 517081, "alessandra-clarke-001.jpg": 1292792, "alessandra-clarke-002.jpg": 1320412, "alessandra-clarke-003.jpg": 1126334, "alessandra-clarke-004.jpg": 1295529, " ...
创建时间: 2019-02-19 03:18:49 大小:61.3 MB 文件数量:64 热度:9 最近下载:2025-10-14 20:40:03
    ... 首發.mht": 2549, "24.21EroticAnal - Nelly Kent - Couple Goals.mp4": 443311412 ...
创建时间: 2019-02-22 10:20:00 大小:523.77 MB 文件数量:30 热度:4 最近下载:2021-06-17 16:25:58
    ... 首發.mht": 2549, "24.21EroticAnal - Nelly Kent - Couple Goals.mp4": 248546518 ...
创建时间: 2019-04-09 19:24:00 大小:329.6 MB 文件数量:31 热度:10 最近下载:2022-04-13 06:58:24
    {"Sample": {"handsonhardcore.17.12.24.alyssia.kent-sample.mp4": 67382875}, "handsonhardcore.17.12.24.alyssia.kent.mp4": 1550705033, "handsonhardcore.17.12.24.alyssia.kent.nfo": 5197}
创建时间: 2019-04-20 23:56:39 大小:1.51 GB 文件数量:3 热度:15 最近下载:2025-09-17 05:22:08
    {"04-Tamara.flac": 431845026, "Danse Macabre.pdf": 2452898, "01-L'Apprenti Sorcier.flac": 215981083, "05-Danse Macabre, Op.40, R.171.flac": 146262339, "03-A Night On The Bare Mountain.flac": 236883532, "02-The Noonday Witch, Op.108, B.196.flac": 291910373, ...
创建时间: 2019-04-27 19:41:36 大小:1.28 GB 文件数量:7 热度:8 最近下载:2025-01-26 16:01:50
    {"hgf.19.05.24.kent.little.and.kenzie.page[N1C].mp4": 1660695594}
创建时间: 2019-06-04 06:17:46 大小:1.55 GB 文件数量:1 热度:20 最近下载:2025-04-03 22:44:02